sensor_id;sensor_type;location;lat;lon;timestamp;temperature;humidity
28193;DHT22;15473;50.840;3.396;2023-02-28T00:01:52;-1.40;99.90
28193;DHT22;15473;50.840;3.396;2023-02-28T00:04:43;-1.40;99.90
28193;DHT22;15473;50.840;3.396;2023-02-28T00:07:35;-1.50;99.90
28193;DHT22;15473;50.840;3.396;2023-02-28T00:10:26;-1.50;99.90
28193;DHT22;15473;50.840;3.396;2023-02-28T00:13:11;-1.50;99.90
28193;DHT22;15473;50.840;3.396;2023-02-28T00:16:04;-1.50;99.90
28193;DHT22;15473;50.840;3.396;2023-02-28T00:18:52;-1.50;99.90
28193;DHT22;15473;50.840;3.396;2023-02-28T00:21:37;-1.60;99.90
28193;DHT22;15473;50.840;3.396;2023-02-28T00:24:28;-1.60;99.90
28193;DHT22;15473;50.840;3.396;2023-02-28T00:27:20;-1.60;99.90
28193;DHT22;15473;50.840;3.396;2023-02-28T00:30:06;-1.60;99.90
28193;DHT22;15473;50.840;3.396;2023-02-28T00:32:52;-1.60;99.90
28193;DHT22;15473;50.840;3.396;2023-02-28T00:35:38;-1.70;99.90
28193;DHT22;15473;50.840;3.396;2023-02-28T00:38:24;-1.60;99.90
28193;DHT22;15473;50.840;3.396;2023-02-28T00:41:09;-1.70;99.90
28193;DHT22;15473;50.840;3.396;2023-02-28T00:44:01;-1.70;99.90
28193;DHT22;15473;50.840;3.396;2023-02-28T00:46:47;-1.70;99.90
28193;DHT22;15473;50.840;3.396;2023-02-28T00:49:34;-1.70;99.90
28193;DHT22;15473;50.840;3.396;2023-02-28T00:52:19;-1.70;99.90
28193;DHT22;15473;50.840;3.396;2023-02-28T00:55:12;-1.70;99.90
28193;DHT22;15473;50.840;3.396;2023-02-28T00:58:03;-1.70;99.90
28193;DHT22;15473;50.840;3.396;2023-02-28T01:00:55;-1.80;99.90
28193;DHT22;15473;50.840;3.396;2023-02-28T01:03:47;-1.80;99.90
28193;DHT22;15473;50.840;3.396;2023-02-28T01:06:32;-1.80;99.90
28193;DHT22;15473;50.840;3.396;2023-02-28T01:09:18;-1.80;99.90
28193;DHT22;15473;50.840;3.396;2023-02-28T01:12:10;-1.80;99.90
28193;DHT22;15473;50.840;3.396;2023-02-28T01:14:57;-1.90;99.90
28193;DHT22;15473;50.840;3.396;2023-02-28T01:17:44;-1.90;99.90
28193;DHT22;15473;50.840;3.396;2023-02-28T01:20:33;-1.90;99.90
28193;DHT22;15473;50.840;3.396;2023-02-28T01:23:24;-2.00;99.90
28193;DHT22;15473;50.840;3.396;2023-02-28T01:26:18;-2.00;99.90
28193;DHT22;15473;50.840;3.396;2023-02-28T01:29:10;-2.00;99.90
28193;DHT22;15473;50.840;3.396;2023-02-28T01:32:02;-2.00;99.90
28193;DHT22;15473;50.840;3.396;2023-02-28T01:34:48;-2.00;99.90
28193;DHT22;15473;50.840;3.396;2023-02-28T01:37:33;-2.00;99.90
28193;DHT22;15473;50.840;3.396;2023-02-28T01:40:22;-2.10;99.90
28193;DHT22;15473;50.840;3.396;2023-02-28T01:43:12;-2.10;99.90
28193;DHT22;15473;50.840;3.396;2023-02-28T01:45:56;-2.10;99.90
28193;DHT22;15473;50.840;3.396;2023-02-28T01:48:51;-2.10;99.90
28193;DHT22;15473;50.840;3.396;2023-02-28T01:51:44;-2.10;99.90
28193;DHT22;15473;50.840;3.396;2023-02-28T01:54:38;-2.10;99.90
28193;DHT22;15473;50.840;3.396;2023-02-28T01:57:32;-2.10;99.90
28193;DHT22;15473;50.840;3.396;2023-02-28T02:00:26;-2.10;99.90
28193;DHT22;15473;50.840;3.396;2023-02-28T02:03:18;-2.20;99.90
28193;DHT22;15473;50.840;3.396;2023-02-28T02:06:05;-2.20;99.90
28193;DHT22;15473;50.840;3.396;2023-02-28T02:08:50;-2.20;99.90
28193;DHT22;15473;50.840;3.396;2023-02-28T02:11:36;-2.20;99.90
28193;DHT22;15473;50.840;3.396;2023-02-28T02:17:36;-2.20;99.90
28193;DHT22;15473;50.840;3.396;2023-02-28T02:20:32;-2.20;99.90
28193;DHT22;15473;50.840;3.396;2023-02-28T02:23:35;-2.20;99.90
28193;DHT22;15473;50.840;3.396;2023-02-28T02:35:15;-2.20;99.90
28193;DHT22;15473;50.840;3.396;2023-02-28T02:38:14;-2.30;99.90
28193;DHT22;15473;50.840;3.396;2023-02-28T02:41:13;-2.30;99.90
28193;DHT22;15473;50.840;3.396;2023-02-28T02:44:00;-2.30;99.90
28193;DHT22;15473;50.840;3.396;2023-02-28T02:47:03;-2.30;99.90
28193;DHT22;15473;50.840;3.396;2023-02-28T02:49:51;-2.30;99.90
28193;DHT22;15473;50.840;3.396;2023-02-28T02:52:45;-2.30;99.90
28193;DHT22;15473;50.840;3.396;2023-02-28T02:55:32;-2.30;99.90
28193;DHT22;15473;50.840;3.396;2023-02-28T02:58:26;-2.30;99.90
28193;DHT22;15473;50.840;3.396;2023-02-28T03:01:19;-2.40;99.90
28193;DHT22;15473;50.840;3.396;2023-02-28T03:04:10;-2.40;99.90
28193;DHT22;15473;50.840;3.396;2023-02-28T03:06:59;-2.40;99.90
28193;DHT22;15473;50.840;3.396;2023-02-28T03:09:54;-2.40;99.90
28193;DHT22;15473;50.840;3.396;2023-02-28T03:12:45;-2.40;99.90
28193;DHT22;15473;50.840;3.396;2023-02-28T03:15:36;-2.40;99.90
28193;DHT22;15473;50.840;3.396;2023-02-28T03:18:29;-2.40;99.90
28193;DHT22;15473;50.840;3.396;2023-02-28T03:24:14;-2.40;99.90
28193;DHT22;15473;50.840;3.396;2023-02-28T03:27:06;-2.50;99.90
28193;DHT22;15473;50.840;3.396;2023-02-28T03:30:03;-2.50;99.90
28193;DHT22;15473;50.840;3.396;2023-02-28T03:32:44;-2.50;99.90
28193;DHT22;15473;50.840;3.396;2023-02-28T03:35:34;-2.50;99.90
28193;DHT22;15473;50.840;3.396;2023-02-28T03:38:28;-2.50;99.90
28193;DHT22;15473;50.840;3.396;2023-02-28T03:44:01;-2.50;99.90
28193;DHT22;15473;50.840;3.396;2023-02-28T03:46:54;-2.50;99.90
28193;DHT22;15473;50.840;3.396;2023-02-28T03:49:53;-2.50;99.90
28193;DHT22;15473;50.840;3.396;2023-02-28T03:52:37;-2.50;99.90
28193;DHT22;15473;50.840;3.396;2023-02-28T03:55:23;-2.50;99.90
28193;DHT22;15473;50.840;3.396;2023-02-28T03:58:39;-2.50;99.90
28193;DHT22;15473;50.840;3.396;2023-02-28T04:01:43;-2.50;99.90
28193;DHT22;15473;50.840;3.396;2023-02-28T04:04:34;-2.50;99.90
28193;DHT22;15473;50.840;3.396;2023-02-28T04:07:22;-2.60;99.90
28193;DHT22;15473;50.840;3.396;2023-02-28T04:10:09;-2.50;99.90
28193;DHT22;15473;50.840;3.396;2023-02-28T04:12:55;-2.60;99.90
28193;DHT22;15473;50.840;3.396;2023-02-28T04:15:40;-2.60;99.90
28193;DHT22;15473;50.840;3.396;2023-02-28T04:18:26;-2.60;99.90
28193;DHT22;15473;50.840;3.396;2023-02-28T04:21:18;-2.60;99.90
28193;DHT22;15473;50.840;3.396;2023-02-28T04:24:06;-2.60;99.90
28193;DHT22;15473;50.840;3.396;2023-02-28T04:26:52;-2.60;99.90
28193;DHT22;15473;50.840;3.396;2023-02-28T04:29:44;-2.60;99.90
28193;DHT22;15473;50.840;3.396;2023-02-28T04:32:36;-2.60;99.90
28193;DHT22;15473;50.840;3.396;2023-02-28T04:35:27;-2.60;99.90
28193;DHT22;15473;50.840;3.396;2023-02-28T04:38:13;-2.50;99.90
28193;DHT22;15473;50.840;3.396;2023-02-28T04:40:59;-2.50;99.90
28193;DHT22;15473;50.840;3.396;2023-02-28T04:43:46;-2.50;99.90
28193;DHT22;15473;50.840;3.396;2023-02-28T04:46:37;-2.50;99.90
28193;DHT22;15473;50.840;3.396;2023-02-28T04:49:29;-2.40;99.90
28193;DHT22;15473;50.840;3.396;2023-02-28T04:52:21;-2.40;99.90
28193;DHT22;15473;50.840;3.396;2023-02-28T04:55:07;-2.20;99.90
28193;DHT22;15473;50.840;3.396;2023-02-28T04:57:58;-2.20;99.90
28193;DHT22;15473;50.840;3.396;2023-02-28T05:00:44;-2.10;99.90
28193;DHT22;15473;50.840;3.396;2023-02-28T05:03:36;-2.00;99.90
28193;DHT22;15473;50.840;3.396;2023-02-28T05:06:23;-1.90;99.90
28193;DHT22;15473;50.840;3.396;2023-02-28T05:09:10;-1.80;99.90
28193;DHT22;15473;50.840;3.396;2023-02-28T05:11:56;-1.70;99.90
28193;DHT22;15473;50.840;3.396;2023-02-28T05:14:49;-1.60;99.90
28193;DHT22;15473;50.840;3.396;2023-02-28T05:17:35;-1.50;99.90
28193;DHT22;15473;50.840;3.396;2023-02-28T05:20:27;-1.40;99.90
28193;DHT22;15473;50.840;3.396;2023-02-28T05:23:14;-1.40;99.90
28193;DHT22;15473;50.840;3.396;2023-02-28T05:25:59;-1.30;99.90
28193;DHT22;15473;50.840;3.396;2023-02-28T05:28:45;-1.20;99.90
28193;DHT22;15473;50.840;3.396;2023-02-28T05:31:34;-1.10;99.90
28193;DHT22;15473;50.840;3.396;2023-02-28T05:34:27;-1.00;99.90
28193;DHT22;15473;50.840;3.396;2023-02-28T05:37:16;-1.00;99.90
28193;DHT22;15473;50.840;3.396;2023-02-28T05:40:02;-0.90;99.90
28193;DHT22;15473;50.840;3.396;2023-02-28T05:42:56;-0.80;99.90
28193;DHT22;15473;50.840;3.396;2023-02-28T05:45:42;-0.80;99.90
28193;DHT22;15473;50.840;3.396;2023-02-28T05:48:28;-0.70;99.90
28193;DHT22;15473;50.840;3.396;2023-02-28T05:51:14;-0.70;99.90
28193;DHT22;15473;50.840;3.396;2023-02-28T05:54:07;-0.60;99.90
28193;DHT22;15473;50.840;3.396;2023-02-28T05:56:56;-0.60;99.90
28193;DHT22;15473;50.840;3.396;2023-02-28T05:59:42;-0.60;99.90
28193;DHT22;15473;50.840;3.396;2023-02-28T06:02:34;-0.50;99.90
28193;DHT22;15473;50.840;3.396;2023-02-28T06:05:25;-0.50;99.90
28193;DHT22;15473;50.840;3.396;2023-02-28T06:08:11;-0.40;99.90
28193;DHT22;15473;50.840;3.396;2023-02-28T06:10:56;-0.40;99.90
28193;DHT22;15473;50.840;3.396;2023-02-28T06:13:43;-0.40;99.90
28193;DHT22;15473;50.840;3.396;2023-02-28T06:16:30;-0.40;99.90
28193;DHT22;15473;50.840;3.396;2023-02-28T06:19:15;-0.30;99.90
28193;DHT22;15473;50.840;3.396;2023-02-28T06:22:07;-0.30;99.90
28193;DHT22;15473;50.840;3.396;2023-02-28T06:24:59;-0.30;99.90
28193;DHT22;15473;50.840;3.396;2023-02-28T06:27:47;-0.20;99.90
28193;DHT22;15473;50.840;3.396;2023-02-28T06:30:33;-0.20;99.90
28193;DHT22;15473;50.840;3.396;2023-02-28T06:33:19;-0.20;99.90
28193;DHT22;15473;50.840;3.396;2023-02-28T06:36:04;-0.10;99.90
28193;DHT22;15473;50.840;3.396;2023-02-28T06:38:52;-0.10;99.90
28193;DHT22;15473;50.840;3.396;2023-02-28T06:41:38;-0.10;99.90
28193;DHT22;15473;50.840;3.396;2023-02-28T06:44:24;0.00;99.90
28193;DHT22;15473;50.840;3.396;2023-02-28T06:47:10;0.00;99.90
28193;DHT22;15473;50.840;3.396;2023-02-28T06:49:55;0.10;99.90
28193;DHT22;15473;50.840;3.396;2023-02-28T06:52:41;0.10;99.90
28193;DHT22;15473;50.840;3.396;2023-02-28T06:55:26;0.10;99.90
28193;DHT22;15473;50.840;3.396;2023-02-28T06:58:19;0.20;99.90
28193;DHT22;15473;50.840;3.396;2023-02-28T07:01:07;0.20;99.90
28193;DHT22;15473;50.840;3.396;2023-02-28T07:03:53;0.30;99.90
28193;DHT22;15473;50.840;3.396;2023-02-28T07:06:45;0.30;99.90
28193;DHT22;15473;50.840;3.396;2023-02-28T07:09:32;0.40;99.90
28193;DHT22;15473;50.840;3.396;2023-02-28T07:12:25;0.50;99.90
28193;DHT22;15473;50.840;3.396;2023-02-28T07:15:17;0.50;99.90
28193;DHT22;15473;50.840;3.396;2023-02-28T07:18:09;0.60;99.90
28193;DHT22;15473;50.840;3.396;2023-02-28T07:21:01;0.70;99.90
28193;DHT22;15473;50.840;3.396;2023-02-28T07:23:47;0.80;99.90
28193;DHT22;15473;50.840;3.396;2023-02-28T07:26:39;0.90;99.90
28193;DHT22;15473;50.840;3.396;2023-02-28T07:29:31;0.90;99.90
28193;DHT22;15473;50.840;3.396;2023-02-28T07:32:16;1.00;99.90
28193;DHT22;15473;50.840;3.396;2023-02-28T07:35:02;1.10;99.90
28193;DHT22;15473;50.840;3.396;2023-02-28T07:37:55;1.20;99.90
28193;DHT22;15473;50.840;3.396;2023-02-28T07:40:42;1.30;99.90
28193;DHT22;15473;50.840;3.396;2023-02-28T07:43:34;1.30;99.90
28193;DHT22;15473;50.840;3.396;2023-02-28T07:46:20;1.40;99.90
28193;DHT22;15473;50.840;3.396;2023-02-28T07:49:12;1.50;99.90
28193;DHT22;15473;50.840;3.396;2023-02-28T07:51:57;1.60;99.90
28193;DHT22;15473;50.840;3.396;2023-02-28T07:54:47;1.70;99.90
28193;DHT22;15473;50.840;3.396;2023-02-28T07:57:39;1.80;99.90
28193;DHT22;15473;50.840;3.396;2023-02-28T08:00:32;1.90;99.90
28193;DHT22;15473;50.840;3.396;2023-02-28T08:03:18;2.00;99.90
28193;DHT22;15473;50.840;3.396;2023-02-28T08:06:15;2.10;99.90
28193;DHT22;15473;50.840;3.396;2023-02-28T08:09:03;2.20;99.90
28193;DHT22;15473;50.840;3.396;2023-02-28T08:11:55;2.40;99.90
28193;DHT22;15473;50.840;3.396;2023-02-28T08:14:47;2.50;99.90
28193;DHT22;15473;50.840;3.396;2023-02-28T08:17:39;2.70;99.90
28193;DHT22;15473;50.840;3.396;2023-02-28T08:20:30;2.90;99.90
28193;DHT22;15473;50.840;3.396;2023-02-28T08:23:19;3.10;99.90
28193;DHT22;15473;50.840;3.396;2023-02-28T08:26:08;3.30;99.90
28193;DHT22;15473;50.840;3.396;2023-02-28T08:28:56;3.60;99.90
28193;DHT22;15473;50.840;3.396;2023-02-28T08:31:47;3.80;99.90
28193;DHT22;15473;50.840;3.396;2023-02-28T08:34:33;4.10;99.90
28193;DHT22;15473;50.840;3.396;2023-02-28T08:37:20;4.40;99.90
28193;DHT22;15473;50.840;3.396;2023-02-28T08:40:11;4.60;99.90
28193;DHT22;15473;50.840;3.396;2023-02-28T08:43:00;4.90;99.90
28193;DHT22;15473;50.840;3.396;2023-02-28T08:45:52;5.10;99.90
28193;DHT22;15473;50.840;3.396;2023-02-28T08:48:45;5.40;99.90
28193;DHT22;15473;50.840;3.396;2023-02-28T08:51:36;5.70;99.90
28193;DHT22;15473;50.840;3.396;2023-02-28T08:54:28;6.00;99.90
28193;DHT22;15473;50.840;3.396;2023-02-28T08:57:22;6.30;99.90
28193;DHT22;15473;50.840;3.396;2023-02-28T09:00:16;6.60;99.90
28193;DHT22;15473;50.840;3.396;2023-02-28T09:03:08;7.00;99.90
28193;DHT22;15473;50.840;3.396;2023-02-28T09:06:00;7.30;99.90
28193;DHT22;15473;50.840;3.396;2023-02-28T09:08:52;7.40;99.90
28193;DHT22;15473;50.840;3.396;2023-02-28T09:11:38;7.40;99.90
28193;DHT22;15473;50.840;3.396;2023-02-28T09:14:24;7.30;99.90
28193;DHT22;15473;50.840;3.396;2023-02-28T09:17:09;7.20;99.90
28193;DHT22;15473;50.840;3.396;2023-02-28T09:20:02;7.10;99.90
28193;DHT22;15473;50.840;3.396;2023-02-28T09:22:54;7.10;99.90
28193;DHT22;15473;50.840;3.396;2023-02-28T09:25:48;7.00;99.90
28193;DHT22;15473;50.840;3.396;2023-02-28T09:28:40;6.90;99.90
28193;DHT22;15473;50.840;3.396;2023-02-28T09:31:27;6.80;99.90
28193;DHT22;15473;50.840;3.396;2023-02-28T09:34:14;6.70;99.90
28193;DHT22;15473;50.840;3.396;2023-02-28T09:37:08;6.60;99.90
28193;DHT22;15473;50.840;3.396;2023-02-28T09:39:53;6.60;99.90
28193;DHT22;15473;50.840;3.396;2023-02-28T09:42:46;6.60;99.90
28193;DHT22;15473;50.840;3.396;2023-02-28T09:45:39;6.50;99.90
28193;DHT22;15473;50.840;3.396;2023-02-28T09:48:33;6.50;99.90
28193;DHT22;15473;50.840;3.396;2023-02-28T09:51:47;6.60;99.90
28193;DHT22;15473;50.840;3.396;2023-02-28T09:54:39;6.60;99.90
28193;DHT22;15473;50.840;3.396;2023-02-28T09:57:31;6.70;99.90
28193;DHT22;15473;50.840;3.396;2023-02-28T10:00:23;6.70;99.90
28193;DHT22;15473;50.840;3.396;2023-02-28T10:06:19;6.60;99.90
28193;DHT22;15473;50.840;3.396;2023-02-28T10:09:08;6.50;99.90
28193;DHT22;15473;50.840;3.396;2023-02-28T10:12:00;6.50;99.90
28193;DHT22;15473;50.840;3.396;2023-02-28T10:14:51;6.60;99.90
28193;DHT22;15473;50.840;3.396;2023-02-28T10:17:45;6.70;99.90
28193;DHT22;15473;50.840;3.396;2023-02-28T10:20:39;6.80;99.90
28193;DHT22;15473;50.840;3.396;2023-02-28T10:23:32;7.00;99.90
28193;DHT22;15473;50.840;3.396;2023-02-28T10:26:20;7.10;99.90
28193;DHT22;15473;50.840;3.396;2023-02-28T10:29:12;7.20;99.90
28193;DHT22;15473;50.840;3.396;2023-02-28T10:32:00;7.30;99.90
28193;DHT22;15473;50.840;3.396;2023-02-28T10:37:55;7.50;99.90
28193;DHT22;15473;50.840;3.396;2023-02-28T10:40:41;7.70;99.90
28193;DHT22;15473;50.840;3.396;2023-02-28T10:43:33;7.80;99.90
28193;DHT22;15473;50.840;3.396;2023-02-28T10:46:19;7.90;99.90
28193;DHT22;15473;50.840;3.396;2023-02-28T10:49:20;8.10;99.90
28193;DHT22;15473;50.840;3.396;2023-02-28T10:52:14;8.20;99.90
28193;DHT22;15473;50.840;3.396;2023-02-28T10:55:14;8.20;99.90
28193;DHT22;15473;50.840;3.396;2023-02-28T10:58:22;8.40;99.90
28193;DHT22;15473;50.840;3.396;2023-02-28T11:01:12;8.80;99.90
28193;DHT22;15473;50.840;3.396;2023-02-28T11:03:54;9.00;99.90
28193;DHT22;15473;50.840;3.396;2023-02-28T11:06:45;9.10;99.90
28193;DHT22;15473;50.840;3.396;2023-02-28T11:09:35;9.20;99.90
28193;DHT22;15473;50.840;3.396;2023-02-28T11:12:34;9.30;99.90
28193;DHT22;15473;50.840;3.396;2023-02-28T11:21:02;11.10;99.90
28193;DHT22;15473;50.840;3.396;2023-02-28T11:23:48;12.10;99.90
28193;DHT22;15473;50.840;3.396;2023-02-28T11:26:35;14.20;99.90
28193;DHT22;15473;50.840;3.396;2023-02-28T11:29:25;16.40;99.90
28193;DHT22;15473;50.840;3.396;2023-02-28T11:32:20;18.40;99.90
28193;DHT22;15473;50.840;3.396;2023-02-28T11:35:45;20.20;99.90
28193;DHT22;15473;50.840;3.396;2023-02-28T11:38:13;21.90;99.90
28193;DHT22;15473;50.840;3.396;2023-02-28T11:41:03;23.20;99.90
28193;DHT22;15473;50.840;3.396;2023-02-28T11:44:08;24.40;99.90
28193;DHT22;15473;50.840;3.396;2023-02-28T11:46:59;25.50;99.90
28193;DHT22;15473;50.840;3.396;2023-02-28T11:53:02;27.00;99.90
28193;DHT22;15473;50.840;3.396;2023-02-28T11:56:11;27.60;99.60
28193;DHT22;15473;50.840;3.396;2023-02-28T11:59:03;28.20;97.70
28193;DHT22;15473;50.840;3.396;2023-02-28T12:05:02;28.90;94.90
28193;DHT22;15473;50.840;3.396;2023-02-28T12:10:56;29.50;92.70
28193;DHT22;15473;50.840;3.396;2023-02-28T12:14:40;29.70;92.30
28193;DHT22;15473;50.840;3.396;2023-02-28T12:16:48;29.80;91.70
28193;DHT22;15473;50.840;3.396;2023-02-28T12:19:40;30.00;91.30
28193;DHT22;15473;50.840;3.396;2023-02-28T12:25:24;30.40;90.90
28193;DHT22;15473;50.840;3.396;2023-02-28T12:28:15;30.80;90.40
28193;DHT22;15473;50.840;3.396;2023-02-28T12:31:08;30.80;88.80
28193;DHT22;15473;50.840;3.396;2023-02-28T12:34:06;29.80;88.00
28193;DHT22;15473;50.840;3.396;2023-02-28T12:36:46;28.20;88.80
28193;DHT22;15473;50.840;3.396;2023-02-28T12:39:44;27.10;91.00
28193;DHT22;15473;50.840;3.396;2023-02-28T12:42:40;26.20;92.20
28193;DHT22;15473;50.840;3.396;2023-02-28T12:45:27;25.40;92.70
28193;DHT22;15473;50.840;3.396;2023-02-28T12:48:21;24.80;93.90
28193;DHT22;15473;50.840;3.396;2023-02-28T12:51:06;24.40;94.30
28193;DHT22;15473;50.840;3.396;2023-02-28T12:54:02;24.40;94.80
28193;DHT22;15473;50.840;3.396;2023-02-28T12:56:56;24.40;94.70
28193;DHT22;15473;50.840;3.396;2023-02-28T13:00:21;24.60;94.40
28193;DHT22;15473;50.840;3.396;2023-02-28T13:09:01;25.60;93.00
28193;DHT22;15473;50.840;3.396;2023-02-28T13:11:53;25.80;92.80
28193;DHT22;15473;50.840;3.396;2023-02-28T13:14:41;26.00;92.70
28193;DHT22;15473;50.840;3.396;2023-02-28T13:17:34;26.10;92.70
28193;DHT22;15473;50.840;3.396;2023-02-28T13:20:20;26.30;93.60
28193;DHT22;15473;50.840;3.396;2023-02-28T13:23:16;26.30;93.00
28193;DHT22;15473;50.840;3.396;2023-02-28T13:26:00;26.20;93.60
28193;DHT22;15473;50.840;3.396;2023-02-28T13:29:00;26.20;93.60
28193;DHT22;15473;50.840;3.396;2023-02-28T13:37:46;26.10;93.70
28193;DHT22;15473;50.840;3.396;2023-02-28T13:40:34;26.10;93.20
28193;DHT22;15473;50.840;3.396;2023-02-28T13:43:23;26.10;92.40
28193;DHT22;15473;50.840;3.396;2023-02-28T13:46:16;26.10;93.50
28193;DHT22;15473;50.840;3.396;2023-02-28T13:52:20;26.00;93.60
28193;DHT22;15473;50.840;3.396;2023-02-28T13:55:20;25.90;94.20
28193;DHT22;15473;50.840;3.396;2023-02-28T13:58:08;26.00;93.60
28193;DHT22;15473;50.840;3.396;2023-02-28T14:01:11;25.90;92.70
28193;DHT22;15473;50.840;3.396;2023-02-28T14:06:52;26.00;93.50
28193;DHT22;15473;50.840;3.396;2023-02-28T14:09:54;26.00;94.30
28193;DHT22;15473;50.840;3.396;2023-02-28T14:15:39;25.90;94.00
28193;DHT22;15473;50.840;3.396;2023-02-28T14:18:28;25.90;93.20
28193;DHT22;15473;50.840;3.396;2023-02-28T14:21:21;25.80;94.40
28193;DHT22;15473;50.840;3.396;2023-02-28T14:27:15;25.70;93.50
28193;DHT22;15473;50.840;3.396;2023-02-28T14:33:11;25.50;93.90
28193;DHT22;15473;50.840;3.396;2023-02-28T14:38:57;25.40;92.40
28193;DHT22;15473;50.840;3.396;2023-02-28T14:41:47;25.30;93.30
28193;DHT22;15473;50.840;3.396;2023-02-28T14:44:33;25.10;93.60
28193;DHT22;15473;50.840;3.396;2023-02-28T14:47:31;24.90;93.60
28193;DHT22;15473;50.840;3.396;2023-02-28T14:50:18;24.70;94.50
28193;DHT22;15473;50.840;3.396;2023-02-28T14:53:13;24.60;92.60
28193;DHT22;15473;50.840;3.396;2023-02-28T14:55:57;24.50;94.30
28193;DHT22;15473;50.840;3.396;2023-02-28T14:58:50;24.40;94.40
28193;DHT22;15473;50.840;3.396;2023-02-28T15:01:32;24.20;95.00
28193;DHT22;15473;50.840;3.396;2023-02-28T15:04:22;23.90;93.50
28193;DHT22;15473;50.840;3.396;2023-02-28T15:07:15;23.70;91.90
28193;DHT22;15473;50.840;3.396;2023-02-28T15:10:35;23.40;92.60
28193;DHT22;15473;50.840;3.396;2023-02-28T15:12:58;23.10;92.90
28193;DHT22;15473;50.840;3.396;2023-02-28T15:15:55;22.80;92.50
28193;DHT22;15473;50.840;3.396;2023-02-28T15:21:32;21.60;93.10
28193;DHT22;15473;50.840;3.396;2023-02-28T15:24:30;20.90;93.50
28193;DHT22;15473;50.840;3.396;2023-02-28T15:30:07;19.30;94.40
28193;DHT22;15473;50.840;3.396;2023-02-28T15:33:05;18.50;95.30
28193;DHT22;15473;50.840;3.396;2023-02-28T15:36:06;17.80;96.10
28193;DHT22;15473;50.840;3.396;2023-02-28T15:38:59;17.00;96.00
28193;DHT22;15473;50.840;3.396;2023-02-28T15:41:51;16.30;96.70
28193;DHT22;15473;50.840;3.396;2023-02-28T15:44:37;15.70;96.90
28193;DHT22;15473;50.840;3.396;2023-02-28T15:47:23;15.20;98.40
28193;DHT22;15473;50.840;3.396;2023-02-28T15:50:10;14.70;99.10
28193;DHT22;15473;50.840;3.396;2023-02-28T15:53:12;14.10;99.30
28193;DHT22;15473;50.840;3.396;2023-02-28T15:56:17;13.60;99.70
28193;DHT22;15473;50.840;3.396;2023-02-28T15:59:06;13.10;99.90
28193;DHT22;15473;50.840;3.396;2023-02-28T16:02:03;12.60;99.90
28193;DHT22;15473;50.840;3.396;2023-02-28T16:05:00;12.20;99.90
28193;DHT22;15473;50.840;3.396;2023-02-28T16:07:52;11.80;99.90
28193;DHT22;15473;50.840;3.396;2023-02-28T16:10:44;11.40;99.90
28193;DHT22;15473;50.840;3.396;2023-02-28T16:13:32;11.10;99.90
28193;DHT22;15473;50.840;3.396;2023-02-28T16:16:22;10.80;99.90
28193;DHT22;15473;50.840;3.396;2023-02-28T16:19:15;10.40;99.90
28193;DHT22;15473;50.840;3.396;2023-02-28T16:22:01;10.20;99.90
28193;DHT22;15473;50.840;3.396;2023-02-28T16:24:48;9.90;99.90
28193;DHT22;15473;50.840;3.396;2023-02-28T16:27:39;9.70;99.90
28193;DHT22;15473;50.840;3.396;2023-02-28T16:30:26;9.50;99.90
28193;DHT22;15473;50.840;3.396;2023-02-28T16:33:12;9.20;99.90
28193;DHT22;15473;50.840;3.396;2023-02-28T16:35:58;9.00;99.90
28193;DHT22;15473;50.840;3.396;2023-02-28T16:38:43;8.80;99.90
28193;DHT22;15473;50.840;3.396;2023-02-28T16:41:29;8.60;99.90
28193;DHT22;15473;50.840;3.396;2023-02-28T16:44:32;8.40;99.90
28193;DHT22;15473;50.840;3.396;2023-02-28T16:47:24;8.20;99.90
28193;DHT22;15473;50.840;3.396;2023-02-28T16:50:24;8.00;99.90
28193;DHT22;15473;50.840;3.396;2023-02-28T16:53:16;7.80;99.90
28193;DHT22;15473;50.840;3.396;2023-02-28T16:56:17;7.60;99.90
28193;DHT22;15473;50.840;3.396;2023-02-28T16:59:03;7.40;99.90
28193;DHT22;15473;50.840;3.396;2023-02-28T17:01:48;7.30;99.90
28193;DHT22;15473;50.840;3.396;2023-02-28T17:04:40;7.10;99.90
28193;DHT22;15473;50.840;3.396;2023-02-28T17:07:32;6.90;99.90
28193;DHT22;15473;50.840;3.396;2023-02-28T17:10:28;6.70;99.90
28193;DHT22;15473;50.840;3.396;2023-02-28T17:13:11;6.60;99.90
28193;DHT22;15473;50.840;3.396;2023-02-28T17:16:04;6.40;99.90
28193;DHT22;15473;50.840;3.396;2023-02-28T17:18:50;6.20;99.90
28193;DHT22;15473;50.840;3.396;2023-02-28T17:21:37;6.00;99.90
28193;DHT22;15473;50.840;3.396;2023-02-28T17:24:23;5.80;99.90
28193;DHT22;15473;50.840;3.396;2023-02-28T17:27:14;5.70;99.90
28193;DHT22;15473;50.840;3.396;2023-02-28T17:30:13;5.50;99.90
28193;DHT22;15473;50.840;3.396;2023-02-28T17:33:00;5.30;99.90
28193;DHT22;15473;50.840;3.396;2023-02-28T17:35:46;5.20;99.90
28193;DHT22;15473;50.840;3.396;2023-02-28T17:38:32;5.00;99.90
28193;DHT22;15473;50.840;3.396;2023-02-28T17:41:18;4.80;99.90
28193;DHT22;15473;50.840;3.396;2023-02-28T17:44:05;4.60;99.90
28193;DHT22;15473;50.840;3.396;2023-02-28T17:46:57;4.50;99.90
28193;DHT22;15473;50.840;3.396;2023-02-28T17:49:45;4.30;99.90
28193;DHT22;15473;50.840;3.396;2023-02-28T17:52:32;4.20;99.90
28193;DHT22;15473;50.840;3.396;2023-02-28T17:55:30;4.00;99.90
28193;DHT22;15473;50.840;3.396;2023-02-28T17:58:15;3.90;99.90
28193;DHT22;15473;50.840;3.396;2023-02-28T18:01:02;3.70;99.90
28193;DHT22;15473;50.840;3.396;2023-02-28T18:03:55;3.60;99.90
28193;DHT22;15473;50.840;3.396;2023-02-28T18:06:43;3.50;99.90
28193;DHT22;15473;50.840;3.396;2023-02-28T18:09:38;3.40;99.90
28193;DHT22;15473;50.840;3.396;2023-02-28T18:12:24;3.20;99.90
28193;DHT22;15473;50.840;3.396;2023-02-28T18:15:10;3.10;99.90
28193;DHT22;15473;50.840;3.396;2023-02-28T18:17:57;3.00;99.90
28193;DHT22;15473;50.840;3.396;2023-02-28T18:20:43;2.90;99.90
28193;DHT22;15473;50.840;3.396;2023-02-28T18:23:28;2.80;99.90
28193;DHT22;15473;50.840;3.396;2023-02-28T18:26:20;2.70;99.90
28193;DHT22;15473;50.840;3.396;2023-02-28T18:29:15;2.70;99.90
28193;DHT22;15473;50.840;3.396;2023-02-28T18:31:59;2.60;99.90
28193;DHT22;15473;50.840;3.396;2023-02-28T18:34:52;2.50;99.90
28193;DHT22;15473;50.840;3.396;2023-02-28T18:37:45;2.40;99.90
28193;DHT22;15473;50.840;3.396;2023-02-28T18:40:37;2.30;99.90
28193;DHT22;15473;50.840;3.396;2023-02-28T18:43:23;2.20;99.90
28193;DHT22;15473;50.840;3.396;2023-02-28T18:46:12;2.10;99.90
28193;DHT22;15473;50.840;3.396;2023-02-28T18:48:58;2.10;99.90
28193;DHT22;15473;50.840;3.396;2023-02-28T18:51:50;2.00;99.90
28193;DHT22;15473;50.840;3.396;2023-02-28T18:54:43;1.90;99.90
28193;DHT22;15473;50.840;3.396;2023-02-28T18:57:28;1.80;99.90
28193;DHT22;15473;50.840;3.396;2023-02-28T19:00:14;1.80;99.90
28193;DHT22;15473;50.840;3.396;2023-02-28T19:03:03;1.70;99.90
28193;DHT22;15473;50.840;3.396;2023-02-28T19:05:52;1.60;99.90
28193;DHT22;15473;50.840;3.396;2023-02-28T19:08:43;1.60;99.90
28193;DHT22;15473;50.840;3.396;2023-02-28T19:11:30;1.50;99.90
28193;DHT22;15473;50.840;3.396;2023-02-28T19:14:16;1.40;99.90
28193;DHT22;15473;50.840;3.396;2023-02-28T19:17:02;1.40;99.90
28193;DHT22;15473;50.840;3.396;2023-02-28T19:19:48;1.30;99.90
28193;DHT22;15473;50.840;3.396;2023-02-28T19:22:34;1.30;99.90